Time;durP1;ratioP1;P1;durP2;ratioP2;P2;SDS_P1;SDS_P2;PMS_P1;PMS_P2;Temp;Humidity;BMP_temperature;BMP_pressure;BME280_temperature;BME280_humidity;BME280_pressure;Samples;Min_cycle;Max_cycle;Signal;HPM_P1;HPM_P2
2023/01/14 00:00:25;;;;;;;16.65;4.55;;;12.50;95.80;;;;;;5074129;28;20382;-60
2023/01/14 00:02:51;;;;;;;19.35;5.40;;;12.60;96.20;;;;;;5073635;28;20024;-60
2023/01/14 00:05:17;;;;;;;22.17;4.72;;;12.60;95.50;;;;;;5074218;28;20028;-60
2023/01/14 00:07:42;;;;;;;21.33;6.03;;;12.60;96.10;;;;;;5074049;28;20409;-60
2023/01/14 00:10:09;;;;;;;23.92;5.93;;;12.50;95.40;;;;;;5072667;28;20359;-62
2023/01/14 00:12:34;;;;;;;22.13;5.22;;;12.60;96.30;;;;;;5072874;28;20523;-61
2023/01/14 00:15:00;;;;;;;27.38;5.25;;;12.60;96.10;;;;;;5072627;28;20105;-60
2023/01/14 00:17:26;;;;;;;19.55;5.22;;;12.70;96.30;;;;;;5072850;28;20050;-60
2023/01/14 00:19:51;;;;;;;18.20;4.93;;;12.70;96.40;;;;;;5073235;28;20032;-60
2023/01/14 00:22:17;;;;;;;16.15;4.65;;;12.70;96.40;;;;;;5073593;28;20033;-60
2023/01/14 00:24:42;;;;;;;21.65;4.85;;;12.70;96.20;;;;;;5073737;28;20062;-60
2023/01/14 00:27:08;;;;;;;28.42;6.35;;;12.70;96.80;;;;;;5072902;28;20493;-61
2023/01/14 00:29:35;;;;;;;26.65;6.07;;;12.70;96.40;;;;;;5073103;28;20012;-60
2023/01/14 00:32:03;;;;;;;23.48;5.43;;;12.80;96.60;;;;;;5072932;28;20045;-60
2023/01/14 00:34:30;;;;;;;16.73;4.25;;;12.80;96.60;;;;;;5073793;28;20103;-61
2023/01/14 00:36:57;;;;;;;17.75;4.88;;;12.80;96.60;;;;;;5073504;28;20033;-61
2023/01/14 00:39:24;;;;;;;23.52;5.05;;;12.80;96.70;;;;;;5073162;28;20106;-63
2023/01/14 00:41:49;;;;;;;22.17;5.30;;;12.80;96.30;;;;;;5072430;28;20021;-60
2023/01/14 00:44:15;;;;;;;17.55;3.90;;;12.80;96.30;;;;;;5073889;28;20031;-60
2023/01/14 00:46:41;;;;;;;23.05;5.25;;;12.80;96.30;;;;;;5075382;28;20044;-65
2023/01/14 00:49:16;;;;;;;24.98;5.88;;;12.70;96.10;;;;;;5075100;28;20028;-60
2023/01/14 00:51:42;;;;;;;30.10;6.45;;;12.70;95.80;;;;;;5074620;28;20037;-61
2023/01/14 00:54:07;;;;;;;26.23;6.07;;;12.60;95.70;;;;;;5074400;28;20025;-65
2023/01/14 00:56:33;;;;;;;24.02;6.43;;;12.60;95.40;;;;;;5074286;28;20032;-69
2023/01/14 00:58:59;;;;;;;26.35;6.35;;;12.60;95.30;;;;;;5074301;28;20044;-66
2023/01/14 01:01:25;;;;;;;31.30;6.25;;;12.60;95.20;;;;;;5074379;28;20107;-64
2023/01/14 01:03:54;;;;;;;25.45;5.43;;;12.50;95.30;;;;;;5074282;28;20025;-64
2023/01/14 01:06:21;;;;;;;24.45;5.63;;;12.50;95.30;;;;;;5074390;28;20534;-61
2023/01/14 01:08:48;;;;;;;24.45;6.07;;;12.50;95.40;;;;;;5072397;28;20032;-62
2023/01/14 01:11:13;;;;;;;28.80;6.03;;;12.40;95.30;;;;;;5069412;28;20021;-60
2023/01/14 01:13:39;;;;;;;26.88;5.32;;;12.30;95.50;;;;;;5072537;28;20036;-60
2023/01/14 01:16:10;;;;;;;31.50;6.15;;;12.30;95.60;;;;;;5074025;28;20070;-65
2023/01/14 01:18:36;;;;;;;21.90;5.30;;;12.30;95.70;;;;;;5069206;28;20013;-62
2023/01/14 01:21:05;;;;;;;25.95;5.72;;;12.30;95.70;;;;;;5054025;28;20024;-60
2023/01/14 01:23:31;;;;;;;23.65;5.32;;;12.20;95.80;;;;;;5053607;28;20566;-60
2023/01/14 01:26:04;;;;;;;31.48;5.70;;;12.20;95.80;;;;;;5053265;28;20032;-60
2023/01/14 01:28:31;;;;;;;25.85;5.00;;;12.20;96.00;;;;;;5053770;28;20036;-61
2023/01/14 01:31:04;;;;;;;29.70;6.07;;;12.20;96.00;;;;;;5067412;28;20059;-75
2023/01/14 01:33:31;;;;;;;25.50;5.68;;;12.10;96.00;;;;;;5073890;28;20029;-78
2023/01/14 01:36:01;;;;;;;26.98;5.22;;;12.10;96.10;;;;;;5073496;28;20104;-71
2023/01/14 01:38:28;;;;;;;29.50;5.90;;;12.10;96.30;;;;;;5073247;28;20418;-75
2023/01/14 01:40:54;;;;;;;20.90;5.20;;;12.20;96.20;;;;;;5071669;28;20024;-68
2023/01/14 01:43:23;;;;;;;21.98;5.18;;;12.20;96.10;;;;;;5073324;28;20051;-61
2023/01/14 01:45:50;;;;;;;24.30;5.07;;;12.20;96.10;;;;;;5073304;28;20033;-76
2023/01/14 01:48:28;;;;;;;24.13;5.55;;;12.10;96.20;;;;;;5073264;28;20438;-74
2023/01/14 01:51:08;;;;;;;30.70;5.63;;;12.00;96.30;;;;;;5072858;28;20035;-61
2023/01/14 01:53:38;;;;;;;21.98;5.40;;;12.10;96.30;;;;;;5073438;28;20036;-71
2023/01/14 01:56:05;;;;;;;30.60;5.85;;;12.10;96.60;;;;;;5072812;28;20032;-62
2023/01/14 01:58:32;;;;;;;24.88;4.70;;;12.00;96.30;;;;;;5073254;28;20024;-73
2023/01/14 02:00:58;;;;;;;23.40;6.22;;;12.10;96.30;;;;;;5072946;28;20024;-70
2023/01/14 02:03:44;;;;;;;26.35;5.60;;;12.10;96.20;;;;;;5072701;28;20036;-65
2023/01/14 02:06:11;;;;;;;24.77;5.90;;;12.00;96.30;;;;;;5073049;28;20059;-64
2023/01/14 02:08:40;;;;;;;31.77;5.72;;;12.00;96.20;;;;;;5072801;28;20112;-77
2023/01/14 02:12:01;;;;;;;24.27;5.65;;;12.00;96.20;;;;;;5072922;28;20017;-74
2023/01/14 02:14:45;;;;;;;27.58;5.65;;;12.00;96.40;;;;;;5067911;28;20111;-72
2023/01/14 02:17:38;;;;;;;23.02;4.75;;;11.90;96.40;;;;;;5073057;28;20103;-78
2023/01/14 02:20:09;;;;;;;;;;;11.90;96.50;;;;;;5073116;28;20047;-74
2023/01/14 02:22:48;;;;;;;22.50;4.65;;;11.80;96.50;;;;;;5072754;28;21327;-64
2023/01/14 02:25:50;;;;;;;22.58;5.32;;;11.80;96.60;;;;;;5072578;28;20032;-70
2023/01/14 02:28:46;;;;;;;27.77;5.22;;;11.80;96.70;;;;;;5072771;28;20039;-68
2023/01/14 02:31:50;;;;;;;23.75;5.03;;;11.80;96.80;;;;;;5072710;28;20044;-68
2023/01/14 02:35:01;;;;;;;23.27;4.97;;;11.80;96.70;;;;;;5072543;28;20035;-65
2023/01/14 02:37:36;;;;;;;25.65;5.10;;;11.80;96.70;;;;;;5066983;28;20114;-69
2023/01/14 02:40:26;;;;;;;21.80;4.90;;;11.80;96.70;;;;;;5072795;28;20729;-63
2023/01/14 02:46:17;;;;;;;;;;;11.80;96.70;;;;;;5072248;28;20040;-69
2023/01/14 02:48:44;;;;;;;14.52;4.10;;;11.70;96.70;;;;;;5072639;28;19962;-71
2023/01/14 02:51:12;;;;;;;19.55;4.22;;;11.70;96.80;;;;;;5072489;28;20470;-67
2023/01/14 02:53:37;;;;;;;26.08;4.60;;;11.70;96.90;;;;;;5072332;28;20481;-77
2023/01/14 02:56:04;;;;;;;18.58;4.13;;;11.70;96.80;;;;;;5079029;28;20021;-75
2023/01/14 02:58:45;;;;;;;22.85;4.50;;;11.70;96.70;;;;;;5079297;28;20035;-70
2023/01/14 03:01:26;;;;;;;23.80;4.70;;;11.70;96.70;;;;;;5079096;28;20035;-68
2023/01/14 03:04:09;;;;;;;21.48;5.07;;;11.80;96.70;;;;;;5079112;28;20481;-73
2023/01/14 03:07:02;;;;;;;20.95;4.38;;;11.70;96.70;;;;;;5078848;28;20457;-76
2023/01/14 03:10:00;;;;;;;24.65;5.70;;;11.70;97.00;;;;;;5079075;28;20078;-66
2023/01/14 03:12:38;;;;;;;18.67;4.55;;;11.70;96.80;;;;;;5078833;28;20043;-72
2023/01/14 03:15:10;;;;;;;24.95;4.55;;;11.70;96.80;;;;;;5077807;28;20355;-62
2023/01/14 03:17:55;;;;;;;22.33;4.82;;;11.60;96.80;;;;;;5078782;28;20104;-61
2023/01/14 03:20:29;;;;;;;26.75;4.70;;;11.70;96.90;;;;;;5078939;28;20032;-61
2023/01/14 03:22:57;;;;;;;22.08;4.43;;;11.60;96.90;;;;;;5078467;28;20036;-61
2023/01/14 03:25:25;;;;;;;24.35;4.45;;;11.60;96.90;;;;;;5078927;28;20136;-64
2023/01/14 03:27:54;;;;;;;18.08;4.53;;;11.60;96.80;;;;;;5078891;28;20033;-61
2023/01/14 03:30:28;;;;;;;24.90;4.65;;;11.60;96.80;;;;;;5078966;28;20418;-61
2023/01/14 03:32:57;;;;;;;18.20;4.22;;;11.60;96.90;;;;;;5080031;28;20036;-60
2023/01/14 03:35:32;;;;;;;18.90;4.00;;;11.60;96.80;;;;;;5078970;28;20062;-63
2023/01/14 03:38:15;;;;;;;16.20;4.13;;;11.60;96.80;;;;;;5079092;28;20429;-62
2023/01/14 03:40:41;;;;;;;;;;;11.60;96.90;;;;;;5079750;28;20020;-65
2023/01/14 03:43:16;;;;;;;15.85;3.85;;;11.50;96.90;;;;;;5078877;28;19904;-60
2023/01/14 03:45:43;;;;;;;19.17;4.43;;;11.60;96.90;;;;;;5077364;28;20448;-60
2023/01/14 03:48:09;;;;;;;21.10;4.70;;;11.50;97.00;;;;;;5071426;28;20055;-61
2023/01/14 03:51:05;;;;;;;23.10;4.93;;;11.50;96.90;;;;;;5061275;28;20021;-61
2023/01/14 03:53:41;;;;;;;19.92;4.68;;;11.50;96.90;;;;;;5057189;28;20033;-64
2023/01/14 03:56:21;;;;;;;17.80;4.22;;;11.50;97.00;;;;;;5058474;28;20478;-61
2023/01/14 03:58:54;;;;;;;19.33;4.07;;;11.50;97.10;;;;;;5058530;28;20021;-61
2023/01/14 04:01:34;;;;;;;24.25;5.38;;;11.50;97.00;;;;;;5058535;28;20025;-60
2023/01/14 04:04:01;;;;;;;20.38;4.60;;;11.50;97.00;;;;;;5058418;28;20021;-60
2023/01/14 04:06:27;;;;;;;24.02;4.22;;;11.50;97.00;;;;;;5055554;28;20118;-60
2023/01/14 04:08:53;;;;;;;17.42;3.88;;;11.50;97.00;;;;;;5055543;28;20565;-60
2023/01/14 04:11:18;;;;;;;23.60;4.57;;;11.50;97.00;;;;;;5055273;28;20507;-62
2023/01/14 04:16:28;;;;;;;16.73;4.35;;;11.40;97.10;;;;;;5055579;28;20036;-60
2023/01/14 04:18:53;;;;;;;22.05;4.35;;;11.50;97.00;;;;;;5054778;28;20390;-60
2023/01/14 04:21:19;;;;;;;23.92;4.45;;;11.40;97.10;;;;;;5054909;28;20025;-60
2023/01/14 04:23:45;;;;;;;17.30;4.47;;;11.40;97.10;;;;;;5054935;28;20427;-60
2023/01/14 04:26:10;;;;;;;16.13;4.10;;;11.40;97.10;;;;;;5054944;28;20044;-61
2023/01/14 04:28:36;;;;;;;21.60;5.18;;;11.40;97.10;;;;;;5054527;28;20057;-59
2023/01/14 04:31:01;;;;;;;21.20;4.53;;;11.40;97.10;;;;;;5055056;28;20025;-60
2023/01/14 04:33:27;;;;;;;19.63;3.97;;;11.40;97.10;;;;;;5053675;28;20432;-60
2023/01/14 04:35:52;;;;;;;20.23;4.70;;;11.40;97.10;;;;;;5054769;28;20763;-60
2023/01/14 04:38:21;;;;;;;21.77;5.15;;;11.40;97.10;;;;;;5054601;28;20492;-60
2023/01/14 04:40:51;;;;;;;20.60;4.57;;;11.40;97.20;;;;;;5054972;28;20024;-59
2023/01/14 04:43:17;;;;;;;21.05;4.43;;;11.40;97.30;;;;;;5053397;28;20100;-60
2023/01/14 04:45:43;;;;;;;20.42;4.55;;;11.30;97.20;;;;;;5052705;28;20565;-61
2023/01/14 04:48:09;;;;;;;22.13;4.05;;;11.40;97.20;;;;;;5053571;28;20107;-61
2023/01/14 04:50:36;;;;;;;18.63;4.63;;;11.40;97.20;;;;;;5054474;28;20029;-59
2023/01/14 04:53:10;;;;;;;19.58;4.50;;;11.40;97.20;;;;;;5054266;28;20171;-60
2023/01/14 04:55:38;;;;;;;16.92;3.78;;;11.40;97.20;;;;;;5054406;28;20490;-60
2023/01/14 04:58:05;;;;;;;19.67;3.53;;;11.30;97.30;;;;;;5054335;28;20068;-59
2023/01/14 05:00:31;;;;;;;15.98;3.55;;;11.40;97.20;;;;;;5054283;28;20025;-60
2023/01/14 05:02:57;;;;;;;17.95;3.90;;;11.30;97.30;;;;;;5054135;28;20032;-60
2023/01/14 05:05:22;;;;;;;17.35;4.20;;;11.30;97.30;;;;;;5054238;28;20112;-62
2023/01/14 05:07:48;;;;;;;25.15;4.88;;;11.30;97.30;;;;;;5054124;28;20028;-61
2023/01/14 05:10:15;;;;;;;16.52;4.38;;;11.30;97.40;;;;;;5054148;28;20059;-59
2023/01/14 05:12:55;;;;;;;20.35;3.97;;;11.30;97.40;;;;;;5054731;28;20021;-60
2023/01/14 05:15:22;;;;;;;13.02;3.03;;;11.30;97.50;;;;;;5053893;28;20017;-68
2023/01/14 05:17:48;;;;;;;18.45;3.92;;;11.30;97.50;;;;;;5053350;28;20024;-59
2023/01/14 05:20:13;;;;;;;18.30;5.00;;;11.30;97.50;;;;;;5053911;28;20051;-59
2023/01/14 05:22:39;;;;;;;18.67;3.72;;;11.30;97.50;;;;;;5052642;28;20060;-59
2023/01/14 05:25:05;;;;;;;23.92;4.45;;;11.30;97.90;;;;;;5053967;28;20025;-60
2023/01/14 05:27:33;;;;;;;17.10;3.83;;;11.30;97.60;;;;;;5053812;28;20048;-59
2023/01/14 05:29:58;;;;;;;20.52;3.78;;;11.30;97.70;;;;;;5053731;28;20040;-61
2023/01/14 05:32:24;;;;;;;10.88;3.33;;;11.30;97.80;;;;;;5053393;28;20506;-60
2023/01/14 05:34:49;;;;;;;17.17;3.80;;;11.30;97.70;;;;;;5053646;28;20017;-60
2023/01/14 05:37:15;;;;;;;25.70;4.60;;;11.30;97.80;;;;;;5053662;28;20107;-59
2023/01/14 05:39:40;;;;;;;15.48;3.65;;;11.30;97.90;;;;;;5053648;28;20028;-60
2023/01/14 05:47:35;;;;;;;17.13;2.95;;;11.20;98.10;;;;;;5071111;28;20051;-60
2023/01/14 05:50:01;;;;;;;18.20;3.80;;;11.30;98.30;;;;;;5072112;28;20024;-59
2023/01/14 05:52:26;;;;;;;15.82;3.85;;;11.30;98.40;;;;;;5073562;28;20025;-59
2023/01/14 05:54:52;;;;;;;18.05;3.38;;;11.30;98.50;;;;;;5073090;28;20397;-60
2023/01/14 05:57:18;;;;;;;17.50;4.25;;;11.30;98.50;;;;;;5073356;28;20471;-60
2023/01/14 05:59:43;;;;;;;18.13;3.70;;;11.30;98.60;;;;;;5073213;28;20533;-60
2023/01/14 06:07:38;;;;;;;18.08;3.53;;;11.30;98.80;;;;;;5070758;28;20051;-60
2023/01/14 06:10:04;;;;;;;13.20;3.30;;;11.20;99.00;;;;;;5071910;28;20025;-62
2023/01/14 06:13:07;;;;;;;16.40;3.67;;;11.30;99.10;;;;;;5073044;28;20028;-60
2023/01/14 06:15:21;;;;;;;12.15;3.38;;;11.30;99.20;;;;;;5071506;28;20443;-64
2023/01/14 06:17:56;;;;;;;16.98;3.50;;;11.20;99.30;;;;;;5072662;28;20016;-60
2023/01/14 06:20:22;;;;;;;15.88;3.78;;;11.30;99.30;;;;;;5073078;28;20029;-60
2023/01/14 06:22:47;;;;;;;13.05;3.63;;;11.30;99.40;;;;;;5072859;28;20074;-61
2023/01/14 06:25:13;;;;;;;17.70;3.83;;;11.20;99.50;;;;;;5072769;28;20063;-60
2023/01/14 06:27:38;;;;;;;10.98;2.78;;;11.30;99.60;;;;;;5071266;28;20093;-60
2023/01/14 06:30:04;;;;;;;8.93;2.75;;;11.30;99.60;;;;;;5071647;28;20021;-61
2023/01/14 06:32:32;;;;;;;13.27;3.78;;;11.30;99.70;;;;;;5072811;28;20043;-60
2023/01/14 06:34:58;;;;;;;10.38;2.85;;;11.30;99.80;;;;;;5072659;28;20025;-60
2023/01/14 06:37:24;;;;;;;10.38;3.42;;;11.20;99.90;;;;;;5072487;28;20538;-61
2023/01/14 06:39:49;;;;;;;10.95;3.00;;;11.30;99.90;;;;;;5072716;28;20039;-60
2023/01/14 06:42:15;;;;;;;9.13;3.03;;;11.30;99.90;;;;;;5071869;28;20024;-63
2023/01/14 06:44:41;;;;;;;11.23;3.08;;;11.30;99.90;;;;;;5072092;28;20107;-63
2023/01/14 06:47:06;;;;;;;11.70;2.70;;;11.30;99.90;;;;;;5072323;28;20032;-60
2023/01/14 06:49:32;;;;;;;14.48;3.10;;;11.20;99.90;;;;;;5072569;28;20155;-59
2023/01/14 06:51:57;;;;;;;9.57;2.78;;;11.30;99.90;;;;;;5072194;28;20377;-60
2023/01/14 06:54:23;;;;;;;12.25;2.60;;;11.20;99.90;;;;;;5072701;28;20650;-60
2023/01/14 06:56:48;;;;;;;11.15;3.33;;;11.30;99.90;;;;;;5072260;28;20032;-58
2023/01/14 06:59:14;;;;;;;9.02;2.70;;;11.20;99.90;;;;;;5072241;28;20027;-60
2023/01/14 07:01:40;;;;;;;8.18;2.42;;;11.20;99.90;;;;;;5072139;28;20099;-60
2023/01/14 07:04:05;;;;;;;7.40;2.33;;;11.20;99.90;;;;;;5071269;28;20383;-60
2023/01/14 07:06:31;;;;;;;9.07;2.85;;;11.20;99.90;;;;;;5072345;28;20021;-62
2023/01/14 07:08:56;;;;;;;8.80;2.53;;;11.30;99.90;;;;;;5072600;28;20021;-60
2023/01/14 07:11:22;;;;;;;8.20;3.08;;;11.20;99.90;;;;;;5071034;28;20020;-61
2023/01/14 07:13:47;;;;;;;10.75;2.42;;;11.20;99.90;;;;;;5072335;28;20016;-59
2023/01/14 07:16:13;;;;;;;9.73;2.60;;;11.30;99.90;;;;;;5072193;28;20032;-59
2023/01/14 07:18:38;;;;;;;10.38;2.90;;;11.30;99.90;;;;;;5072483;28;20066;-60
2023/01/14 07:21:04;;;;;;;14.68;3.10;;;11.30;99.90;;;;;;5072372;28;20367;-62
2023/01/14 07:23:30;;;;;;;8.63;2.40;;;11.30;99.90;;;;;;5072165;28;20073;-60
2023/01/14 07:25:55;;;;;;;30.15;4.25;;;11.30;99.90;;;;;;5072162;28;20489;-60
2023/01/14 07:28:23;;;;;;;9.65;2.70;;;11.30;99.90;;;;;;5071929;28;20546;-59
2023/01/14 07:30:48;;;;;;;9.48;2.25;;;11.50;99.90;;;;;;5072089;28;20032;-60
2023/01/14 07:33:14;;;;;;;7.72;2.20;;;11.70;99.90;;;;;;5072225;28;20036;-63
2023/01/14 07:35:40;;;;;;;9.80;2.38;;;11.70;99.90;;;;;;5071994;28;20029;-60
2023/01/14 07:38:05;;;;;;;13.35;2.90;;;11.80;99.90;;;;;;5072055;28;20098;-62
2023/01/14 07:40:31;;;;;;;13.70;3.25;;;11.90;99.90;;;;;;5073754;28;20486;-60
2023/01/14 07:42:57;;;;;;;9.65;1.73;;;11.90;99.90;;;;;;5075526;28;20354;-59
2023/01/14 07:45:24;;;;;;;8.02;1.98;;;11.90;99.90;;;;;;5075960;28;20020;-59
2023/01/14 07:47:50;;;;;;;9.95;2.40;;;11.80;99.90;;;;;;5066534;28;20025;-59
2023/01/14 07:50:17;;;;;;;10.80;2.00;;;11.80;99.90;;;;;;5069308;28;20504;-60
2023/01/14 07:52:42;;;;;;;16.95;2.00;;;11.80;99.90;;;;;;5070115;28;20029;-59
2023/01/14 07:55:08;;;;;;;6.38;1.80;;;11.80;99.90;;;;;;5062288;28;20388;-59
2023/01/14 07:57:33;;;;;;;9.35;2.03;;;11.80;99.90;;;;;;5067480;28;20549;-61
2023/01/14 07:59:59;;;;;;;10.48;2.13;;;11.80;99.90;;;;;;5073356;28;20363;-61
2023/01/14 08:02:25;;;;;;;8.10;2.03;;;11.80;99.90;;;;;;5064191;28;20044;-59
2023/01/14 08:04:50;;;;;;;4.95;1.52;;;11.90;99.90;;;;;;5070283;28;20016;-59
2023/01/14 08:07:16;;;;;;;8.00;1.70;;;12.10;99.90;;;;;;5070003;28;20035;-60
2023/01/14 08:09:42;;;;;;;10.55;2.45;;;12.50;99.90;;;;;;5061758;28;20465;-59
2023/01/14 08:12:07;;;;;;;8.07;2.15;;;12.90;99.90;;;;;;5065197;28;20076;-59
2023/01/14 08:14:33;;;;;;;9.70;2.30;;;13.10;99.80;;;;;;5069282;28;20480;-63
2023/01/14 08:17:02;;;;;;;9.68;2.03;;;13.30;99.50;;;;;;5066325;28;20033;-62
2023/01/14 08:19:27;;;;;;;12.25;1.88;;;13.30;99.40;;;;;;5072520;28;20473;-58
2023/01/14 08:21:53;;;;;;;6.57;1.65;;;13.20;99.90;;;;;;5056483;28;20078;-60
2023/01/14 08:24:19;;;;;;;7.53;1.98;;;13.20;99.90;;;;;;5066694;28;20017;-59
2023/01/14 08:26:44;;;;;;;7.72;1.73;;;13.20;99.90;;;;;;5054545;28;20504;-59
2023/01/14 08:29:10;;;;;;;6.95;2.00;;;13.30;99.90;;;;;;5061090;28;20070;-61
2023/01/14 08:31:35;;;;;;;10.25;2.10;;;13.20;99.90;;;;;;5083289;28;20527;-60
2023/01/14 08:34:01;;;;;;;6.68;2.22;;;13.20;99.90;;;;;;5069968;28;20513;-60
2023/01/14 08:36:26;;;;;;;9.90;2.22;;;13.30;99.70;;;;;;5071082;28;20507;-63
2023/01/14 08:38:53;;;;;;;7.95;1.50;;;13.30;99.90;;;;;;5068480;28;20029;-62
2023/01/14 08:41:19;;;;;;;4.38;1.40;;;13.70;99.90;;;;;;5062055;28;20020;-80
2023/01/14 08:43:49;;;;;;;8.40;2.00;;;13.60;99.50;;;;;;5056551;28;20381;-58
2023/01/14 08:46:16;;;;;;;7.20;1.90;;;13.40;99.90;;;;;;5053996;28;20033;-64
2023/01/14 08:48:41;;;;;;;7.53;1.88;;;13.40;99.90;;;;;;5055192;28;20087;-62
2023/01/14 08:51:10;;;;;;;10.38;1.80;;;13.50;99.90;;;;;;5061921;28;20470;-69
2023/01/14 08:53:37;;;;;;;12.77;2.63;;;13.70;99.50;;;;;;5060914;28;20025;-76
2023/01/14 08:56:04;;;;;;;9.57;2.80;;;13.70;99.60;;;;;;5066977;28;20153;-72
2023/01/14 08:58:31;;;;;;;5.55;1.85;;;13.40;99.60;;;;;;5063470;28;20027;-58
2023/01/14 09:00:58;;;;;;;5.57;1.65;;;13.40;99.90;;;;;;5055208;28;20021;-66
2023/01/14 09:03:25;;;;;;;9.88;2.53;;;13.40;99.90;;;;;;5066485;28;20111;-71
2023/01/14 09:05:58;;;;;;;5.30;1.58;;;13.80;99.10;;;;;;5061001;28;20020;-73
2023/01/14 09:19:29;;;;;;;11.15;2.97;;;13.80;99.10;;;;;;5064759;28;20040;-72
2023/01/14 09:21:55;;;;;;;6.82;1.55;;;13.90;98.90;;;;;;5053463;28;20452;-63
2023/01/14 09:24:21;;;;;;;7.47;2.05;;;14.00;98.90;;;;;;5067690;28;20154;-59
2023/01/14 09:26:47;;;;;;;10.35;2.00;;;14.30;98.10;;;;;;5067751;28;20024;-58
2023/01/14 09:29:12;;;;;;;6.28;1.45;;;14.00;98.50;;;;;;5062360;28;20036;-68
2023/01/14 09:31:38;;;;;;;5.85;1.75;;;14.00;98.60;;;;;;5059207;28;20382;-62
2023/01/14 09:34:03;;;;;;;8.52;2.35;;;14.20;98.30;;;;;;5070861;28;20504;-61
2023/01/14 09:36:29;;;;;;;6.78;1.52;;;13.60;99.80;;;;;;5068828;28;20110;-70
2023/01/14 09:38:55;;;;;;;8.77;1.35;;;13.30;99.90;;;;;;5064638;28;20032;-61
2023/01/14 09:41:33;;;;;;;7.00;1.70;;;13.40;99.90;;;;;;5072758;28;20151;-64
2023/01/14 09:44:03;;;;;;;9.43;1.88;;;13.70;99.60;;;;;;5071488;28;20032;-62
2023/01/14 09:46:30;;;;;;;5.45;1.48;;;13.70;99.50;;;;;;5060916;28;20539;-61
2023/01/14 09:49:00;;;;;;;6.50;1.98;;;13.80;99.30;;;;;;5070890;28;20473;-61
2023/01/14 09:51:40;;;;;;;5.65;1.67;;;13.60;99.90;;;;;;5070206;28;20029;-59
2023/01/14 09:54:18;;;;;;;4.85;1.60;;;13.30;99.90;;;;;;5064658;28;20033;-68
2023/01/14 09:56:49;;;;;;;4.10;1.25;;;13.00;99.90;;;;;;5067858;28;20108;-70
2023/01/14 09:59:29;;;;;;;5.85;1.70;;;12.70;99.90;;;;;;5063788;28;20103;-61
2023/01/14 10:02:23;;;;;;;5.20;1.58;;;12.90;99.90;;;;;;5067510;28;20110;-59
2023/01/14 10:04:52;;;;;;;6.05;1.60;;;13.80;99.90;;;;;;5057761;28;20489;-65
2023/01/14 10:07:18;;;;;;;6.45;1.42;;;14.50;98.90;;;;;;5066251;28;20132;-71
2023/01/14 10:09:58;;;;;;;6.13;1.10;;;15.20;97.40;;;;;;5066936;28;20035;-66
2023/01/14 10:12:40;;;;;;;12.77;1.40;;;15.50;97.00;;;;;;5072321;28;20021;-66
2023/01/14 10:15:36;;;;;;;8.60;1.77;;;15.50;96.90;;;;;;5063746;28;20073;-72
2023/01/14 10:18:36;;;;;;;3.33;1.17;;;15.10;97.70;;;;;;5068263;28;20515;-63
2023/01/14 10:21:39;;;;;;;5.15;1.40;;;14.50;99.60;;;;;;5068531;28;20025;-66
2023/01/14 10:24:07;;;;;;;7.50;1.25;;;14.20;99.90;;;;;;5065992;28;20083;-69
2023/01/14 10:26:33;;;;;;;6.68;1.20;;;14.00;99.90;;;;;;5070012;28;20024;-69
2023/01/14 10:29:19;;;;;;;5.97;1.00;;;13.90;99.90;;;;;;5070763;28;20031;-58
2023/01/14 10:31:53;;;;;;;6.10;1.02;;;13.90;99.90;;;;;;5069719;28;20367;-76
2023/01/14 10:34:44;;;;;;;6.55;1.40;;;13.80;99.90;;;;;;5071899;28;20488;-70
2023/01/14 10:37:11;;;;;;;4.97;1.13;;;13.80;99.90;;;;;;5070656;28;20040;-73
2023/01/14 10:39:42;;;;;;;3.38;0.90;;;13.80;99.90;;;;;;5071636;28;20020;-62
2023/01/14 10:42:11;;;;;;;3.65;1.08;;;13.70;99.90;;;;;;5066381;28;20024;-68
2023/01/14 10:44:42;;;;;;;5.53;1.17;;;13.70;99.90;;;;;;5068550;28;20032;-60
2023/01/14 10:47:15;;;;;;;3.30;0.80;;;13.70;99.90;;;;;;5068633;28;20486;-59
2023/01/14 10:49:50;;;;;;;2.45;0.70;;;13.60;99.90;;;;;;5067216;28;20121;-60
2023/01/14 10:52:22;;;;;;;3.40;0.73;;;13.70;99.90;;;;;;5070259;28;20028;-67
2023/01/14 10:55:23;;;;;;;3.00;0.65;;;13.70;99.90;;;;;;5070775;28;20020;-60
2023/01/14 10:58:06;;;;;;;2.53;0.60;;;13.70;99.90;;;;;;5071786;28;20092;-61
2023/01/14 11:00:42;;;;;;;2.78;0.70;;;13.70;99.90;;;;;;5071827;28;20367;-63
2023/01/14 11:03:24;;;;;;;3.53;1.02;;;13.70;99.90;;;;;;5071158;28;20478;-60
2023/01/14 11:06:14;;;;;;;4.38;1.10;;;13.80;99.90;;;;;;5068865;28;20025;-61
2023/01/14 11:08:53;;;;;;;4.53;1.20;;;13.80;99.90;;;;;;5063880;28;20032;-71
2023/01/14 11:11:25;;;;;;;5.22;1.63;;;13.80;99.90;;;;;;5070795;28;20033;-63
2023/01/14 11:13:53;;;;;;;4.30;1.08;;;13.70;99.90;;;;;;5070234;28;20036;-64
2023/01/14 11:16:24;;;;;;;3.60;1.17;;;13.70;99.90;;;;;;5073136;28;20024;-63
2023/01/14 11:18:53;;;;;;;3.35;1.15;;;13.60;99.90;;;;;;5074984;28;20028;-60
2023/01/14 11:21:21;;;;;;;3.28;0.80;;;13.70;99.90;;;;;;5074801;28;20090;-61
2023/01/14 11:24:03;;;;;;;4.28;1.40;;;13.60;99.90;;;;;;5075242;28;20069;-61
2023/01/14 11:26:36;;;;;;;3.55;1.00;;;13.60;99.90;;;;;;5074322;28;20036;-62
2023/01/14 11:29:23;;;;;;;3.33;1.02;;;13.60;99.90;;;;;;5075044;28;20036;-66
2023/01/14 11:32:10;;;;;;;4.93;1.10;;;13.60;99.90;;;;;;5074724;28;20043;-60
2023/01/14 11:34:38;;;;;;;4.03;1.10;;;13.60;99.90;;;;;;5073605;28;20035;-72
2023/01/14 11:37:03;;;;;;;5.35;0.88;;;13.60;99.90;;;;;;5074470;28;20025;-72
2023/01/14 11:39:29;;;;;;;3.60;1.08;;;13.70;99.90;;;;;;5074845;28;20020;-72
2023/01/14 11:41:54;;;;;;;1.55;0.60;;;13.70;99.90;;;;;;5074950;28;20020;-73
2023/01/14 11:44:22;;;;;;;2.70;0.73;;;13.70;99.90;;;;;;5074485;28;20031;-63
2023/01/14 11:47:14;;;;;;;2.75;0.85;;;13.70;99.90;;;;;;5072880;28;20470;-75
2023/01/14 11:49:40;;;;;;;4.38;0.63;;;13.70;99.90;;;;;;5073028;28;20024;-71
2023/01/14 11:52:18;;;;;;;2.47;0.80;;;13.70;99.90;;;;;;5071923;28;20024;-76
2023/01/14 11:54:45;;;;;;;1.80;0.52;;;13.70;99.90;;;;;;5073628;28;20115;-67
2023/01/14 11:57:16;;;;;;;2.97;1.02;;;13.80;99.90;;;;;;5073471;28;20055;-72
2023/01/14 11:59:43;;;;;;;2.33;0.73;;;13.80;99.90;;;;;;5074564;28;20024;-70
2023/01/14 12:02:28;;;;;;;3.67;1.00;;;13.60;99.90;;;;;;5073660;28;20389;-68
2023/01/14 12:05:05;;;;;;;4.75;1.10;;;13.70;99.90;;;;;;5073624;28;20048;-69
2023/01/14 12:07:39;;;;;;;3.63;0.88;;;13.60;99.90;;;;;;5073816;28;20041;-72
2023/01/14 12:10:20;;;;;;;2.65;0.85;;;13.60;99.90;;;;;;5073745;28;20032;-66
2023/01/14 12:19:17;;;;;;;2.97;1.58;;;13.60;99.90;;;;;;5072408;28;20039;-71
2023/01/14 12:21:59;;;;;;;3.40;1.45;;;13.60;99.90;;;;;;5073149;28;20017;-74
2023/01/14 12:24:45;;;;;;;4.65;1.67;;;13.60;99.90;;;;;;5072727;28;20039;-72
2023/01/14 12:27:41;;;;;;;6.32;2.22;;;13.60;99.90;;;;;;5069329;28;20135;-74
2023/01/14 12:30:14;;;;;;;1.75;0.90;;;13.60;99.90;;;;;;5074142;28;20027;-72
2023/01/14 12:32:43;;;;;;;4.20;0.60;;;13.60;99.90;;;;;;5073228;28;20408;-73
2023/01/14 12:35:15;;;;;;;2.63;0.73;;;13.60;99.90;;;;;;5071833;28;20059;-74
2023/01/14 12:45:41;;;;;;;3.33;0.85;;;13.60;99.90;;;;;;5072745;28;20071;-75
2023/01/14 12:46:21;;;;;;;2.15;0.80;;;13.60;99.90;;;;;;5072253;28;20512;-69
2023/01/14 12:48:47;;;;;;;2.60;0.70;;;13.60;99.90;;;;;;5071073;28;20056;-66
2023/01/14 12:51:24;;;;;;;3.72;0.75;;;13.60;99.90;;;;;;5072146;28;20081;-69
2023/01/14 12:53:56;;;;;;;4.07;0.90;;;13.70;99.90;;;;;;5072617;28;20013;-69
2023/01/14 12:56:25;;;;;;;3.88;0.77;;;13.70;99.90;;;;;;5072513;28;20029;-69
2023/01/14 12:59:23;;;;;;;3.13;1.05;;;13.60;99.90;;;;;;5073044;28;20112;-60
2023/01/14 13:02:12;;;;;;;4.00;0.80;;;13.70;99.90;;;;;;5052458;28;20104;-68
2023/01/14 13:04:44;;;;;;;2.88;0.60;;;13.60;99.90;;;;;;5046819;28;20071;-60
2023/01/14 13:07:21;;;;;;;5.22;1.23;;;13.80;99.90;;;;;;5060175;28;20040;-61
2023/01/14 13:09:51;;;;;;;6.05;0.95;;;13.90;99.90;;;;;;5069368;28;20032;-68
2023/01/14 13:12:31;;;;;;;3.33;0.80;;;14.00;99.90;;;;;;5069504;28;20020;-68
2023/01/14 13:15:00;;;;;;;3.65;0.60;;;14.10;99.90;;;;;;5069387;28;20059;-63
2023/01/14 13:17:37;;;;;;;3.22;1.08;;;14.10;99.90;;;;;;5068904;28;20056;-67
2023/01/14 13:20:28;;;;;;;3.03;0.73;;;14.10;99.90;;;;;;5072857;28;20031;-59
2023/01/14 13:22:57;;;;;;;2.78;0.63;;;14.20;99.90;;;;;;5064221;28;20184;-61
2023/01/14 13:25:36;;;;;;;3.42;0.60;;;14.00;99.90;;;;;;5069960;28;20503;-63
2023/01/14 13:28:23;;;;;;;2.60;0.60;;;14.10;99.90;;;;;;5068346;28;20541;-66
2023/01/14 13:31:13;;;;;;;3.08;0.38;;;14.10;99.90;;;;;;5070462;28;20024;-62
2023/01/14 13:33:41;;;;;;;2.53;0.65;;;14.10;99.90;;;;;;5071529;28;20036;-62
2023/01/14 13:36:08;;;;;;;4.65;0.77;;;14.10;99.90;;;;;;5067491;28;20025;-68
2023/01/14 13:38:58;;;;;;;2.88;0.75;;;14.20;99.90;;;;;;5069252;28;20094;-60
2023/01/14 13:41:52;;;;;;;2.47;0.82;;;14.20;99.90;;;;;;5067365;28;20027;-60
2023/01/14 13:44:45;;;;;;;4.32;0.60;;;14.10;99.90;;;;;;5066730;28;20036;-60